createdAt,value
2022-09-04T00:00:03.054Z,978.97
2022-09-04T00:01:03.251Z,978.80
2022-09-04T00:02:03.209Z,978.86
2022-09-04T00:03:03.337Z,978.83
2022-09-04T00:04:03.568Z,978.80
2022-09-04T00:05:03.742Z,979.00
2022-09-04T00:06:03.512Z,978.77
2022-09-04T00:07:03.640Z,978.86
2022-09-04T00:08:03.702Z,978.89
2022-09-04T00:09:03.775Z,978.86
2022-09-04T00:10:03.873Z,979.03
2022-09-04T00:11:03.068Z,979.01
2022-09-04T00:12:03.036Z,979.01
2022-09-04T00:13:03.146Z,978.92
2022-09-04T00:14:03.236Z,978.92
2022-09-04T00:15:03.244Z,978.95
2022-09-04T00:16:03.234Z,978.89
2022-09-04T00:17:03.648Z,978.84
2022-09-04T00:18:03.398Z,978.92
2022-09-04T00:19:03.470Z,978.84
2022-09-04T00:20:03.549Z,978.84
2022-09-04T00:21:03.581Z,978.84
2022-09-04T00:22:03.602Z,978.73
2022-09-04T00:23:03.634Z,978.73
2022-09-04T00:24:03.560Z,978.87
2022-09-04T00:25:03.647Z,978.87
2022-09-04T00:26:03.687Z,978.84
2022-09-04T00:27:03.785Z,978.85
2022-09-04T00:28:03.893Z,978.96
2022-09-04T00:29:03.865Z,978.96
2022-09-04T00:30:02.951Z,978.85
2022-09-04T00:31:03.195Z,979.02
2022-09-04T00:32:03.061Z,978.88
2022-09-04T00:33:03.144Z,978.85
2022-09-04T00:34:03.160Z,979.02
2022-09-04T00:35:03.295Z,979.02
2022-09-04T00:36:03.295Z,978.85
2022-09-04T00:37:03.305Z,978.91
2022-09-04T00:38:03.325Z,978.91
2022-09-04T00:39:03.331Z,978.77
2022-09-04T00:40:03.777Z,978.88
2022-09-04T00:41:03.416Z,978.88
2022-09-04T00:42:03.485Z,978.83
2022-09-04T00:43:03.542Z,978.85
2022-09-04T00:44:03.704Z,978.83
2022-09-04T00:45:05.195Z,978.85
2022-09-04T00:46:03.990Z,978.83
2022-09-04T00:47:03.829Z,978.83
2022-09-04T00:48:03.343Z,978.80
2022-09-04T00:49:03.406Z,978.83
2022-09-04T00:50:03.506Z,978.89
2022-09-04T00:51:03.485Z,978.77
2022-09-04T00:52:03.612Z,978.89
2022-09-04T00:53:06.499Z,978.74
2022-09-04T00:54:03.931Z,978.80
2022-09-04T00:55:02.880Z,978.72
2022-09-04T00:56:02.895Z,978.75
2022-09-04T00:57:02.885Z,978.78
2022-09-04T00:58:02.959Z,978.80
2022-09-04T00:59:03.673Z,978.83
2022-09-04T01:00:03.692Z,978.81
2022-09-04T01:01:04.137Z,978.72
2022-09-04T01:02:04.049Z,978.69
2022-09-04T01:03:03.171Z,978.75
2022-09-04T01:04:03.554Z,978.69
2022-09-04T01:05:03.218Z,978.84
2022-09-04T01:06:03.362Z,978.78
2022-09-04T01:07:03.458Z,978.84
2022-09-04T01:08:03.390Z,978.69
2022-09-04T01:09:02.887Z,978.61
2022-09-04T01:10:03.057Z,978.90
2022-09-04T01:11:03.061Z,978.78
2022-09-04T01:12:03.116Z,978.93
2022-09-04T01:13:03.062Z,978.84
2022-09-04T01:14:03.147Z,978.87
2022-09-04T01:15:03.179Z,978.84
2022-09-04T01:16:03.651Z,978.87
2022-09-04T01:17:03.609Z,978.84
2022-09-04T01:18:03.610Z,978.76
2022-09-04T01:19:03.790Z,978.73
2022-09-04T01:20:03.931Z,978.81
2022-09-04T01:21:03.865Z,978.84
2022-09-04T01:22:03.891Z,978.84
2022-09-04T01:23:03.943Z,978.79
2022-09-04T01:24:03.873Z,978.81
2022-09-04T01:25:02.927Z,978.81
2022-09-04T01:26:02.936Z,978.84
2022-09-04T01:27:02.997Z,978.84
2022-09-04T01:28:03.059Z,978.79
2022-09-04T01:29:03.002Z,978.85
2022-09-04T01:30:03.153Z,978.96
2022-09-04T01:31:03.208Z,978.82
2022-09-04T01:32:03.451Z,978.88
2022-09-04T01:33:03.270Z,978.76
2022-09-04T01:34:03.328Z,978.88
2022-09-04T01:35:03.287Z,978.76
2022-09-04T01:36:03.418Z,978.76
2022-09-04T01:37:03.693Z,978.94
2022-09-04T01:38:03.772Z,978.82
2022-09-04T01:39:03.707Z,978.85
2022-09-04T01:40:03.817Z,978.91
2022-09-04T01:41:03.741Z,978.80
2022-09-04T01:42:03.720Z,978.88
2022-09-04T01:43:03.774Z,978.91
2022-09-04T01:44:03.760Z,978.86
2022-09-04T01:45:03.854Z,978.88
2022-09-04T01:46:03.067Z,978.86
2022-09-04T01:47:03.578Z,978.89
2022-09-04T01:48:03.663Z,978.86
2022-09-04T01:49:03.330Z,978.74
2022-09-04T01:50:03.414Z,978.80
2022-09-04T01:51:04.181Z,978.83
2022-09-04T01:52:03.516Z,978.80
2022-09-04T01:53:03.454Z,978.92
2022-09-04T01:54:03.528Z,978.83
2022-09-04T01:55:03.481Z,978.77
2022-09-04T01:56:03.571Z,978.75
2022-09-04T01:57:03.707Z,978.72
2022-09-04T01:58:03.867Z,978.75
2022-09-04T01:59:03.858Z,978.92
2022-09-04T02:00:02.895Z,978.95
2022-09-04T02:01:03.155Z,978.75
2022-09-04T02:02:03.196Z,978.80
2022-09-04T02:03:03.142Z,978.83
2022-09-04T02:04:03.204Z,978.80
2022-09-04T02:05:08.748Z,978.75
2022-09-04T02:06:03.314Z,978.78
2022-09-04T02:07:03.455Z,978.75
2022-09-04T02:08:03.476Z,978.86
2022-09-04T02:09:03.542Z,978.78
2022-09-04T02:10:03.654Z,978.84
2022-09-04T02:11:03.957Z,978.86
2022-09-04T02:12:07.441Z,978.84
2022-09-04T02:13:03.835Z,978.89
2022-09-04T02:14:03.924Z,978.87
2022-09-04T02:15:03.837Z,978.95
2022-09-04T02:16:03.918Z,978.78
2022-09-04T02:17:03.892Z,978.92
2022-09-04T02:18:03.887Z,978.90
2022-09-04T02:19:02.895Z,978.78
2022-09-04T02:20:02.973Z,978.84
2022-09-04T02:21:03.118Z,978.73
2022-09-04T02:22:03.237Z,978.75
2022-09-04T02:23:03.892Z,978.84
2022-09-04T02:24:03.908Z,978.70
2022-09-04T02:25:03.947Z,978.78
2022-09-04T02:26:03.866Z,978.73
2022-09-04T02:27:03.030Z,978.64
2022-09-04T02:28:03.386Z,978.73
2022-09-04T02:29:03.308Z,978.78
2022-09-04T02:30:03.672Z,978.76
2022-09-04T02:31:03.805Z,978.76
2022-09-04T02:32:05.598Z,978.76
2022-09-04T02:33:03.835Z,978.70
2022-09-04T02:34:03.852Z,978.87
2022-09-04T02:35:03.908Z,978.73
2022-09-04T02:36:02.996Z,978.73
2022-09-04T02:37:02.990Z,978.90
2022-09-04T02:38:03.015Z,978.90
2022-09-04T02:39:03.016Z,978.70
2022-09-04T02:40:03.114Z,978.76
2022-09-04T02:41:03.106Z,978.84
2022-09-04T02:42:03.115Z,978.73
2022-09-04T02:43:03.056Z,978.82
2022-09-04T02:44:03.206Z,978.82
2022-09-04T02:45:03.165Z,978.85
2022-09-04T02:46:03.184Z,978.67
2022-09-04T02:47:03.458Z,978.73
2022-09-04T02:48:03.360Z,978.79
2022-09-04T02:49:03.454Z,978.68
2022-09-04T02:50:03.522Z,978.76
2022-09-04T02:51:03.529Z,978.62
2022-09-04T02:52:03.589Z,978.71
2022-09-04T02:53:03.680Z,978.65
2022-09-04T02:54:03.683Z,978.53
2022-09-04T02:55:03.639Z,978.56
2022-09-04T02:56:03.688Z,978.68
2022-09-04T02:57:03.816Z,978.74
2022-09-04T02:58:03.808Z,978.71
2022-09-04T02:59:03.222Z,978.68
2022-09-04T03:00:03.331Z,978.59
2022-09-04T03:01:03.650Z,978.76
2022-09-04T03:02:03.653Z,978.74
2022-09-04T03:03:03.566Z,978.68
2022-09-04T03:04:03.733Z,978.68
2022-09-04T03:05:03.708Z,978.48
2022-09-04T03:06:03.205Z,978.65
2022-09-04T03:07:03.178Z,978.71
2022-09-04T03:08:03.270Z,978.74
2022-09-04T03:09:05.774Z,978.71
2022-09-04T03:10:03.317Z,978.80
2022-09-04T03:11:03.267Z,978.71
2022-09-04T03:12:03.499Z,978.68
2022-09-04T03:13:03.272Z,978.74
2022-09-04T03:14:03.321Z,978.74
2022-09-04T03:15:03.299Z,978.74
2022-09-04T03:16:03.443Z,978.77
2022-09-04T03:17:03.491Z,978.86
2022-09-04T03:18:03.478Z,978.91
2022-09-04T03:19:03.652Z,978.83
2022-09-04T03:20:03.505Z,978.77
2022-09-04T03:21:03.643Z,978.91
2022-09-04T03:22:03.665Z,978.74
2022-09-04T03:23:03.663Z,978.86
2022-09-04T03:24:03.781Z,978.80
2022-09-04T03:25:03.867Z,978.71
2022-09-04T03:26:03.068Z,978.83
2022-09-04T03:27:03.019Z,978.83
2022-09-04T03:28:03.143Z,978.80
2022-09-04T03:29:03.129Z,978.77
2022-09-04T03:30:03.195Z,978.83
2022-09-04T03:31:03.308Z,978.69
2022-09-04T03:32:16.890Z,978.86
2022-09-04T03:33:04.003Z,978.83
2022-09-04T03:34:03.375Z,978.75
2022-09-04T03:35:04.970Z,978.75
2022-09-04T03:36:03.400Z,978.72
2022-09-04T03:37:03.364Z,978.80
2022-09-04T03:38:03.315Z,978.69
2022-09-04T03:39:03.466Z,978.83
2022-09-04T03:40:03.828Z,978.86
2022-09-04T03:41:03.499Z,978.75
2022-09-04T03:42:03.567Z,978.83
2022-09-04T03:43:03.677Z,978.89
2022-09-04T03:44:03.747Z,978.78
2022-09-04T03:45:03.753Z,978.83
2022-09-04T03:46:03.767Z,978.83
2022-09-04T03:47:03.768Z,978.89
2022-09-04T03:48:03.923Z,978.83
2022-09-04T03:49:02.940Z,978.86
2022-09-04T03:50:03.054Z,978.75
2022-09-04T03:51:03.006Z,978.78
2022-09-04T03:52:03.139Z,978.78
2022-09-04T03:53:03.144Z,978.81
2022-09-04T03:54:03.233Z,978.89
2022-09-04T03:55:03.323Z,978.92
2022-09-04T03:56:03.319Z,978.95
2022-09-04T03:57:03.358Z,978.86
2022-09-04T03:58:03.272Z,978.98
2022-09-04T03:59:03.340Z,978.84
2022-09-04T04:00:03.435Z,978.81
2022-09-04T04:01:03.655Z,979.01
2022-09-04T04:02:03.450Z,978.95
2022-09-04T04:03:03.750Z,979.07
2022-09-04T04:04:03.622Z,979.01
2022-09-04T04:05:03.615Z,979.01
2022-09-04T04:06:03.570Z,979.07
2022-09-04T04:07:03.571Z,978.93
2022-09-04T04:08:03.716Z,979.13
2022-09-04T04:09:03.843Z,979.01
2022-09-04T04:10:03.838Z,979.13
2022-09-04T04:11:03.913Z,979.07
2022-09-04T04:12:03.869Z,979.07
2022-09-04T04:13:03.881Z,979.07
2022-09-04T04:14:03.948Z,979.01
2022-09-04T04:15:02.939Z,979.07
2022-09-04T04:16:03.183Z,978.96
2022-09-04T04:17:04.640Z,978.87
2022-09-04T04:18:03.200Z,979.07
2022-09-04T04:19:03.162Z,979.16
2022-09-04T04:20:03.274Z,978.99
2022-09-04T04:21:03.350Z,979.16
2022-09-04T04:22:03.307Z,979.05
2022-09-04T04:23:03.394Z,979.22
2022-09-04T04:24:03.422Z,979.07
2022-09-04T04:25:03.607Z,979.07
2022-09-04T04:26:03.686Z,979.10
2022-09-04T04:27:03.550Z,979.07
2022-09-04T04:28:05.635Z,979.10
2022-09-04T04:29:03.611Z,979.10
2022-09-04T04:30:03.624Z,978.96
2022-09-04T04:31:03.757Z,979.10
2022-09-04T04:32:03.708Z,979.19
2022-09-04T04:33:03.715Z,979.13
2022-09-04T04:34:03.819Z,979.16
2022-09-04T04:35:03.753Z,979.25
2022-09-04T04:36:03.849Z,979.25
2022-09-04T04:37:02.931Z,979.13
2022-09-04T04:38:03.004Z,979.19
2022-09-04T04:39:03.068Z,979.05
2022-09-04T04:40:03.304Z,979.19
2022-09-04T04:41:02.981Z,979.19
2022-09-04T04:42:02.960Z,979.28
2022-09-04T04:43:03.106Z,979.25
2022-09-04T04:44:03.099Z,979.14
2022-09-04T04:45:03.012Z,979.31
2022-09-04T04:46:03.067Z,979.25
2022-09-04T04:47:03.229Z,979.25
2022-09-04T04:48:03.355Z,979.25
2022-09-04T04:49:03.292Z,979.28
2022-09-04T04:50:03.379Z,979.25
2022-09-04T04:51:03.326Z,979.31
2022-09-04T04:52:03.483Z,979.22
2022-09-04T04:53:03.452Z,979.42
2022-09-04T04:54:09.378Z,979.34
2022-09-04T04:55:03.448Z,979.45
2022-09-04T04:56:03.476Z,979.36
2022-09-04T04:57:03.417Z,979.45
2022-09-04T04:58:03.446Z,979.34
2022-09-04T04:59:03.494Z,979.28
2022-09-04T05:00:03.690Z,979.42
2022-09-04T05:01:03.699Z,979.39
2022-09-04T05:02:07.949Z,979.56
2022-09-04T05:03:04.110Z,979.56
2022-09-04T05:04:02.995Z,979.51
2022-09-04T05:05:02.993Z,979.51
2022-09-04T05:06:03.084Z,979.68
2022-09-04T05:07:03.443Z,979.65
2022-09-04T05:08:08.693Z,979.53
2022-09-04T05:09:03.183Z,979.62
2022-09-04T05:10:03.322Z,979.59
2022-09-04T05:11:03.256Z,979.62
2022-09-04T05:12:03.315Z,979.59
2022-09-04T05:13:03.349Z,979.65
2022-09-04T05:14:03.421Z,979.79
2022-09-04T05:15:03.394Z,979.70
2022-09-04T05:16:10.127Z,979.67
2022-09-04T05:17:03.709Z,979.64
2022-09-04T05:18:03.851Z,979.70
2022-09-04T05:19:03.882Z,979.75
2022-09-04T05:20:03.481Z,979.72
2022-09-04T05:21:03.437Z,979.81
2022-09-04T05:22:03.622Z,979.57
2022-09-04T05:23:03.705Z,979.66
2022-09-04T05:24:03.796Z,979.71
2022-09-04T05:25:03.697Z,979.82
2022-09-04T05:26:03.680Z,979.86
2022-09-04T05:27:03.629Z,979.81
2022-09-04T05:28:03.688Z,979.75
2022-09-04T05:29:03.895Z,979.83
2022-09-04T05:30:03.938Z,979.73
2022-09-04T05:31:03.217Z,979.84
2022-09-04T05:32:03.087Z,979.91
2022-09-04T05:33:03.104Z,979.88
2022-09-04T05:34:03.242Z,979.98
2022-09-04T05:35:03.634Z,980.01
2022-09-04T05:36:04.062Z,980.00
2022-09-04T05:37:05.922Z,979.94
2022-09-04T05:38:03.412Z,979.99
2022-09-04T05:39:04.255Z,980.09
2022-09-04T05:40:03.605Z,980.09
2022-09-04T05:41:03.497Z,980.22
2022-09-04T05:42:07.077Z,980.30
2022-09-04T05:43:03.507Z,980.18
2022-09-04T05:44:03.549Z,980.37
2022-09-04T05:45:03.648Z,980.36
2022-09-04T05:46:03.721Z,980.45
2022-09-04T05:47:03.540Z,980.47
2022-09-04T05:48:03.701Z,980.41
2022-09-04T05:49:03.759Z,980.60
2022-09-04T05:50:03.772Z,980.48
2022-09-04T05:51:03.854Z,980.77
2022-09-04T05:52:03.847Z,980.79
2022-09-04T05:53:03.941Z,980.73
2022-09-04T05:54:02.973Z,980.75
2022-09-04T05:55:03.077Z,980.86
2022-09-04T05:56:03.046Z,980.83
2022-09-04T05:57:03.014Z,980.91
2022-09-04T05:58:03.183Z,980.93
2022-09-04T05:59:03.284Z,981.02
2022-09-04T06:00:03.373Z,981.07
2022-09-04T06:01:03.462Z,981.18
2022-09-04T06:02:03.505Z,981.20
2022-09-04T06:03:03.624Z,981.29
2022-09-04T06:04:03.536Z,981.34
2022-09-04T06:05:03.495Z,981.31
2022-09-04T06:06:03.522Z,981.39
2022-09-04T06:07:03.484Z,981.36
2022-09-04T06:08:03.588Z,981.53
2022-09-04T06:09:03.606Z,981.44
2022-09-04T06:10:03.569Z,981.57
2022-09-04T06:11:03.576Z,981.65
2022-09-04T06:12:03.668Z,981.68
2022-09-04T06:13:03.723Z,981.76
2022-09-04T06:14:03.686Z,981.64
2022-09-04T06:15:03.780Z,981.79
2022-09-04T06:16:03.963Z,981.78
2022-09-04T06:17:02.982Z,981.78
2022-09-04T06:18:03.103Z,981.89
2022-09-04T06:19:03.065Z,981.83
2022-09-04T06:20:03.183Z,981.97
2022-09-04T06:21:03.160Z,981.94
2022-09-04T06:22:03.000Z,982.08
2022-09-04T06:23:03.640Z,982.11
2022-09-04T06:24:03.000Z,982.02
2022-09-04T06:25:03.138Z,982.19
2022-09-04T06:26:03.251Z,982.13
2022-09-04T06:27:03.382Z,982.13
2022-09-04T06:28:03.386Z,982.27
2022-09-04T06:29:06.129Z,982.27
2022-09-04T06:30:03.379Z,982.30
2022-09-04T06:31:04.430Z,982.35
2022-09-04T06:32:03.397Z,982.41
2022-09-04T06:33:03.523Z,982.38
2022-09-04T06:34:03.540Z,982.52
2022-09-04T06:35:03.255Z,982.55
2022-09-04T06:36:03.234Z,982.52
2022-09-04T06:37:03.354Z,982.51
2022-09-04T06:38:03.331Z,982.45
2022-09-04T06:39:03.347Z,982.51
2022-09-04T06:40:03.280Z,982.62
2022-09-04T06:41:03.220Z,982.51
2022-09-04T06:42:03.211Z,982.71
2022-09-04T06:43:03.313Z,982.65
2022-09-04T06:44:05.682Z,982.65
2022-09-04T06:45:03.733Z,982.67
2022-09-04T06:46:03.775Z,982.81
2022-09-04T06:47:03.731Z,982.73
2022-09-04T06:48:03.862Z,982.86
2022-09-04T06:49:02.933Z,982.86
2022-09-04T06:50:03.062Z,982.75
2022-09-04T06:51:03.916Z,982.66
2022-09-04T06:52:03.022Z,982.80
2022-09-04T06:53:04.823Z,982.91
2022-09-04T06:54:03.225Z,983.00
2022-09-04T06:55:04.356Z,982.94
2022-09-04T06:56:03.261Z,982.88
2022-09-04T06:57:03.210Z,982.94
2022-09-04T06:58:03.263Z,982.94
2022-09-04T06:59:03.270Z,982.94
2022-09-04T07:00:03.358Z,982.99
2022-09-04T07:01:03.466Z,982.96
2022-09-04T07:02:03.678Z,983.02
2022-09-04T07:03:03.590Z,983.10
2022-09-04T07:04:03.598Z,983.02
2022-09-04T07:05:03.784Z,983.04
2022-09-04T07:06:03.607Z,983.13
2022-09-04T07:07:03.733Z,983.16
2022-09-04T07:08:03.794Z,983.13
2022-09-04T07:09:03.791Z,983.10
2022-09-04T07:10:10.277Z,983.13
2022-09-04T07:11:03.871Z,983.21
2022-09-04T07:12:02.981Z,983.12
2022-09-04T07:13:03.137Z,983.12
2022-09-04T07:14:03.065Z,983.10
2022-09-04T07:15:03.073Z,983.24
2022-09-04T07:16:03.358Z,983.21
2022-09-04T07:17:03.362Z,983.15
2022-09-04T07:18:03.418Z,983.21
2022-09-04T07:19:03.472Z,983.24
2022-09-04T07:20:03.625Z,983.32
2022-09-04T07:21:03.552Z,983.37
2022-09-04T07:22:03.620Z,983.29
2022-09-04T07:23:03.725Z,983.35
2022-09-04T07:24:03.839Z,983.32
2022-09-04T07:25:03.925Z,983.32
2022-09-04T07:26:03.043Z,983.35
2022-09-04T07:27:03.039Z,983.32
2022-09-04T07:28:03.095Z,983.35
2022-09-04T07:29:03.247Z,983.32
2022-09-04T07:30:03.405Z,983.43
2022-09-04T07:31:03.516Z,983.23
2022-09-04T07:32:03.425Z,983.49
2022-09-04T07:33:03.439Z,983.37
2022-09-04T07:34:03.460Z,983.29
2022-09-04T07:35:03.568Z,983.37
2022-09-04T07:36:03.536Z,983.40
2022-09-04T07:37:03.539Z,983.29
2022-09-04T07:38:03.653Z,983.32
2022-09-04T07:39:03.621Z,983.29
2022-09-04T07:40:06.799Z,983.23
2022-09-04T07:41:04.018Z,983.32
2022-09-04T07:42:02.920Z,983.35
2022-09-04T07:43:02.990Z,983.34
2022-09-04T07:44:03.061Z,983.20
2022-09-04T07:45:03.006Z,983.25
2022-09-04T07:46:03.146Z,983.39
2022-09-04T07:47:03.072Z,983.34
2022-09-04T07:48:03.074Z,983.25
2022-09-04T07:49:03.075Z,983.22
2022-09-04T07:50:03.094Z,983.36
2022-09-04T07:51:03.304Z,983.22
2022-09-04T07:52:03.199Z,983.22
2022-09-04T07:53:09.489Z,983.35
2022-09-04T07:54:03.301Z,983.33
2022-09-04T07:55:03.409Z,983.35
2022-09-04T07:56:03.333Z,983.33
2022-09-04T07:57:03.439Z,983.35
2022-09-04T07:58:03.491Z,983.35
2022-09-04T07:59:03.639Z,983.30
2022-09-04T08:00:03.549Z,983.30
2022-09-04T08:01:03.740Z,983.41
2022-09-04T08:02:03.841Z,983.43
2022-09-04T08:03:03.738Z,983.40
2022-09-04T08:04:03.084Z,983.52
2022-09-04T08:05:04.055Z,983.37
2022-09-04T08:06:03.096Z,983.46
2022-09-04T08:07:03.075Z,983.35
2022-09-04T08:08:03.094Z,983.49
2022-09-04T08:09:03.107Z,983.46
2022-09-04T08:10:03.223Z,983.35
2022-09-04T08:11:03.135Z,983.45
2022-09-04T08:12:03.463Z,983.42
2022-09-04T08:13:03.293Z,983.60
2022-09-04T08:14:03.257Z,983.51
2022-09-04T08:15:03.213Z,983.69
2022-09-04T08:16:03.379Z,983.45
2022-09-04T08:17:03.378Z,983.60
2022-09-04T08:18:03.469Z,983.51
2022-09-04T08:19:03.567Z,983.65
2022-09-04T08:20:03.779Z,983.62
2022-09-04T08:21:03.555Z,983.65
2022-09-04T08:22:03.485Z,983.71
2022-09-04T08:23:03.502Z,983.57
2022-09-04T08:24:04.400Z,983.74
2022-09-04T08:25:03.517Z,983.71
2022-09-04T08:26:03.555Z,983.71
2022-09-04T08:27:03.601Z,983.57
2022-09-04T08:28:03.694Z,983.74
2022-09-04T08:29:03.698Z,983.75
2022-09-04T08:30:03.781Z,983.78
2022-09-04T08:31:03.961Z,983.72
2022-09-04T08:32:03.879Z,983.75
2022-09-04T08:33:03.811Z,983.83
2022-09-04T08:34:03.051Z,983.80
2022-09-04T08:35:03.043Z,983.86
2022-09-04T08:36:03.103Z,983.74
2022-09-04T08:37:03.133Z,983.92
2022-09-04T08:38:03.065Z,983.80
2022-09-04T08:39:07.630Z,983.89
2022-09-04T08:40:03.598Z,983.83
2022-09-04T08:41:03.157Z,983.77
2022-09-04T08:42:03.219Z,983.83
2022-09-04T08:43:03.125Z,983.89
2022-09-04T08:44:03.315Z,983.83
2022-09-04T08:45:03.263Z,983.80
2022-09-04T08:46:03.497Z,983.83
2022-09-04T08:47:03.354Z,983.86
2022-09-04T08:48:03.359Z,983.80
2022-09-04T08:49:03.449Z,983.71
2022-09-04T08:50:03.446Z,983.80
2022-09-04T08:51:03.468Z,983.92
2022-09-04T08:52:03.520Z,983.80
2022-09-04T08:53:04.450Z,983.83
2022-09-04T08:54:03.638Z,983.89
2022-09-04T08:55:03.682Z,984.03
2022-09-04T08:56:03.631Z,983.85
2022-09-04T08:57:03.654Z,983.91
2022-09-04T08:58:03.712Z,984.00
2022-09-04T08:59:03.669Z,983.88
2022-09-04T09:00:03.896Z,983.82
2022-09-04T09:01:03.972Z,983.94
2022-09-04T09:02:03.141Z,983.85
2022-09-04T09:03:03.855Z,983.88
2022-09-04T09:04:03.907Z,984.06
2022-09-04T09:05:03.943Z,983.94
2022-09-04T09:06:02.926Z,983.88
2022-09-04T09:07:03.096Z,984.00
2022-09-04T09:08:03.072Z,983.97
2022-09-04T09:09:03.174Z,983.94
2022-09-04T09:10:03.719Z,984.03
2022-09-04T09:11:03.533Z,984.03
2022-09-04T09:12:03.387Z,983.91
2022-09-04T09:13:03.350Z,984.00
2022-09-04T09:14:03.556Z,983.97
2022-09-04T09:15:03.638Z,983.96
2022-09-04T09:16:03.566Z,984.08
2022-09-04T09:17:03.871Z,984.02
2022-09-04T09:18:03.789Z,984.08
2022-09-04T09:19:03.838Z,984.11
2022-09-04T09:20:02.896Z,983.96
2022-09-04T09:21:03.657Z,984.02
2022-09-04T09:22:03.888Z,983.96
2022-09-04T09:23:02.996Z,984.11
2022-09-04T09:24:02.964Z,984.05
2022-09-04T09:25:02.995Z,984.14
2022-09-04T09:26:03.027Z,983.99
2022-09-04T09:27:03.149Z,984.11
2022-09-04T09:28:03.085Z,983.99
2022-09-04T09:29:03.242Z,984.13
2022-09-04T09:30:03.354Z,984.16
2022-09-04T09:31:03.646Z,984.07
2022-09-04T09:32:04.485Z,983.99
2022-09-04T09:33:03.416Z,984.07
2022-09-04T09:34:03.517Z,984.13
2022-09-04T09:35:03.622Z,984.04
2022-09-04T09:36:03.695Z,984.07
2022-09-04T09:37:03.622Z,984.07
2022-09-04T09:38:05.020Z,984.04
2022-09-04T09:39:03.665Z,984.22
2022-09-04T09:40:03.871Z,984.01
2022-09-04T09:41:02.946Z,984.16
2022-09-04T09:42:02.949Z,984.07
2022-09-04T09:43:02.930Z,984.04
2022-09-04T09:44:03.613Z,983.98
2022-09-04T09:45:03.644Z,984.01
2022-09-04T09:46:03.648Z,984.04
2022-09-04T09:47:03.665Z,983.98
2022-09-04T09:48:03.652Z,983.92
2022-09-04T09:49:15.178Z,984.12
2022-09-04T09:50:03.749Z,984.03
2022-09-04T09:51:03.781Z,984.09
2022-09-04T09:52:02.919Z,983.94
2022-09-04T09:53:03.003Z,984.00
2022-09-04T09:54:02.950Z,984.09
2022-09-04T09:55:03.016Z,984.00
2022-09-04T09:56:02.896Z,983.85
2022-09-04T09:57:03.247Z,984.00
2022-09-04T09:58:03.153Z,983.91
2022-09-04T09:59:03.298Z,984.02
2022-09-04T10:00:03.305Z,983.96
2022-09-04T10:01:08.773Z,984.02
2022-09-04T10:02:03.572Z,983.93
2022-09-04T10:03:03.437Z,983.93
2022-09-04T10:04:03.507Z,984.02
2022-09-04T10:05:03.675Z,984.08
2022-09-04T10:06:03.857Z,983.99
2022-09-04T10:07:03.948Z,984.08
2022-09-04T10:08:03.797Z,983.93
2022-09-04T10:09:09.546Z,983.87
2022-09-04T10:10:02.891Z,983.96
2022-09-04T10:11:03.139Z,983.93
2022-09-04T10:12:03.073Z,984.02
2022-09-04T10:13:03.066Z,983.99
2022-09-04T10:14:03.110Z,983.99
2022-09-04T10:15:03.103Z,983.96
2022-09-04T10:16:03.396Z,983.96
2022-09-04T10:17:03.538Z,984.01
2022-09-04T10:18:03.563Z,983.90
2022-09-04T10:19:03.570Z,983.87
2022-09-04T10:20:03.651Z,983.92
2022-09-04T10:21:03.907Z,983.89
2022-09-04T10:22:03.866Z,983.98
2022-09-04T10:23:02.998Z,983.95
2022-09-04T10:24:03.726Z,983.98
2022-09-04T10:25:03.750Z,983.86
2022-09-04T10:26:03.783Z,983.92
2022-09-04T10:27:03.728Z,983.86
2022-09-04T10:28:03.858Z,984.04
2022-09-04T10:29:03.022Z,983.92
2022-09-04T10:30:03.091Z,983.86
2022-09-04T10:31:03.289Z,983.89
2022-09-04T10:32:03.288Z,984.00
2022-09-04T10:33:08.108Z,983.77
2022-09-04T10:34:03.325Z,983.89
2022-09-04T10:35:03.919Z,983.97
2022-09-04T10:36:02.945Z,984.00
2022-09-04T10:37:02.947Z,983.86
2022-09-04T10:38:02.981Z,983.92
2022-09-04T10:39:03.603Z,984.00
2022-09-04T10:40:03.792Z,983.86
2022-09-04T10:41:03.597Z,983.83
2022-09-04T10:42:03.621Z,983.85
2022-09-04T10:43:03.634Z,983.88
2022-09-04T10:44:03.754Z,983.89
2022-09-04T10:45:03.804Z,983.92
2022-09-04T10:46:03.985Z,983.86
2022-09-04T10:47:03.876Z,984.03
2022-09-04T10:48:03.784Z,983.86
2022-09-04T10:49:02.878Z,983.94
2022-09-04T10:50:02.884Z,983.97
2022-09-04T10:51:02.957Z,983.85
2022-09-04T10:52:03.018Z,984.00
2022-09-04T10:53:02.983Z,983.91
2022-09-04T10:54:08.010Z,983.91
2022-09-04T10:55:03.115Z,983.91
2022-09-04T10:56:03.332Z,983.88
2022-09-04T10:57:03.246Z,984.02
2022-09-04T10:58:03.407Z,983.93
2022-09-04T10:59:03.503Z,983.99
2022-09-04T11:00:04.312Z,984.05
2022-09-04T11:01:03.699Z,984.02
2022-09-04T11:02:03.648Z,983.99
2022-09-04T11:03:03.742Z,983.99
2022-09-04T11:04:03.633Z,983.96
2022-09-04T11:05:03.644Z,984.14
2022-09-04T11:06:03.791Z,984.08
2022-09-04T11:07:02.958Z,984.08
2022-09-04T11:08:02.965Z,984.22
2022-09-04T11:09:03.056Z,984.08
2022-09-04T11:10:03.021Z,984.14
2022-09-04T11:11:03.150Z,984.22
2022-09-04T11:12:03.514Z,984.31
2022-09-04T11:13:03.143Z,984.26
2022-09-04T11:14:03.293Z,984.20
2022-09-04T11:15:03.191Z,984.29
2022-09-04T11:16:03.441Z,984.29
2022-09-04T11:17:03.464Z,984.29
2022-09-04T11:18:03.471Z,984.29
2022-09-04T11:19:03.625Z,984.29
2022-09-04T11:20:03.592Z,984.29
2022-09-04T11:21:03.748Z,984.14
2022-09-04T11:22:03.725Z,984.08
2022-09-04T11:23:03.795Z,984.14
2022-09-04T11:24:03.815Z,984.23
2022-09-04T11:25:03.176Z,984.23
2022-09-04T11:26:03.838Z,984.25
2022-09-04T11:27:08.382Z,984.23
2022-09-04T11:28:02.966Z,984.08
2022-09-04T11:29:03.119Z,984.13
2022-09-04T11:30:03.217Z,984.07
2022-09-04T11:31:03.317Z,984.07
2022-09-04T11:32:03.657Z,984.13
2022-09-04T11:33:04.431Z,984.19
2022-09-04T11:34:03.496Z,984.13
2022-09-04T11:35:03.498Z,984.28
2022-09-04T11:36:03.392Z,984.16
2022-09-04T11:37:03.549Z,984.25
2022-09-04T11:38:03.702Z,984.22
2022-09-04T11:39:03.724Z,984.22
2022-09-04T11:40:03.837Z,984.27
2022-09-04T11:41:03.754Z,984.18
2022-09-04T11:42:03.666Z,984.21
2022-09-04T11:43:03.793Z,984.15
2022-09-04T11:44:02.947Z,984.24
2022-09-04T11:45:02.924Z,984.09
2022-09-04T11:46:03.146Z,984.18
2022-09-04T11:47:03.033Z,984.03
2022-09-04T11:48:03.162Z,984.12
2022-09-04T11:49:03.270Z,984.20
2022-09-04T11:50:03.425Z,984.23
2022-09-04T11:51:03.527Z,984.18
2022-09-04T11:52:03.693Z,984.12
2022-09-04T11:53:03.653Z,984.35
2022-09-04T11:54:03.636Z,984.29
2022-09-04T11:55:03.747Z,984.30
2022-09-04T11:56:03.962Z,984.15
2022-09-04T11:57:03.915Z,984.18
2022-09-04T11:58:03.072Z,984.12
2022-09-04T11:59:03.097Z,984.15
2022-09-04T12:00:03.257Z,984.09
2022-09-04T12:01:03.344Z,984.03
2022-09-04T12:02:03.397Z,984.06
2022-09-04T12:03:03.383Z,984.15
2022-09-04T12:04:03.583Z,984.03
2022-09-04T12:05:03.540Z,984.15
2022-09-04T12:06:02.968Z,984.06
2022-09-04T12:07:03.061Z,984.06
2022-09-04T12:08:03.742Z,984.03
2022-09-04T12:09:03.292Z,984.03
2022-09-04T12:10:03.444Z,984.00
2022-09-04T12:11:03.581Z,984.00
2022-09-04T12:12:03.670Z,984.06
2022-09-04T12:13:15.719Z,984.27
2022-09-04T12:14:03.698Z,984.09
2022-09-04T12:15:08.950Z,983.97
2022-09-04T12:16:03.881Z,984.09
2022-09-04T12:17:03.746Z,984.09
2022-09-04T12:18:03.031Z,984.09
2022-09-04T12:19:03.021Z,984.09
2022-09-04T12:20:08.209Z,984.09
2022-09-04T12:21:03.138Z,983.98
2022-09-04T12:22:03.235Z,984.09
2022-09-04T12:23:03.751Z,984.06
2022-09-04T12:24:03.735Z,983.92
2022-09-04T12:25:03.732Z,983.92
2022-09-04T12:26:03.786Z,984.00
2022-09-04T12:27:03.783Z,983.86
2022-09-04T12:28:03.738Z,984.00